Time;durP1;ratioP1;P1;durP2;ratioP2;P2;SDS_P1;SDS_P2;PMS_P1;PMS_P2;Temp;Humidity;BMP_temperature;BMP_pressure;BME280_temperature;BME280_humidity;BME280_pressure;Samples;Min_cycle;Max_cycle;Signal;HPM_P1;HPM_P2
2024/03/23 00:04:39;;;;;;;6.43;5.80;;;;;;;;;;10286489;28;20060;-58
2024/03/23 00:09:38;;;;;;;7.38;6.68;;;;;;;;;;10278715;28;20311;-59
2024/03/23 00:14:38;;;;;;;7.93;7.13;;;;;;;;;;10277189;28;20076;-59
2024/03/23 00:19:37;;;;;;;7.13;6.43;;;;;;;;;;10280486;28;20569;-59
2024/03/23 00:24:36;;;;;;;8.27;7.38;;;;;;;;;;10280655;28;20068;-59
2024/03/23 00:29:36;;;;;;;7.13;6.45;;;;;;;;;;10283133;28;20069;-58
2024/03/23 00:34:35;;;;;;;6.75;6.05;;;;;;;;;;10282205;28;20080;-57
2024/03/23 00:39:34;;;;;;;7.32;6.55;;;;;;;;;;10285903;28;20457;-57
2024/03/23 00:44:33;;;;;;;7.88;7.07;;;;;;;;;;10284948;28;20079;-58
2024/03/23 00:49:33;;;;;;;7.78;6.97;;;;;;;;;;10280129;28;20067;-58
2024/03/23 00:54:34;;;;;;;7.93;6.22;;;;;;;;;;10281512;28;20431;-58
2024/03/23 00:59:32;;;;;;;8.60;6.18;;;;;;;;;;10267787;28;20064;-59
2024/03/23 01:04:29;;;;;;;7.47;6.45;;;;;;;;;;10278755;28;20083;-57
2024/03/23 01:09:27;;;;;;;8.63;6.57;;;;;;;;;;10273296;28;20067;-58
2024/03/23 01:14:25;;;;;;;7.72;6.65;;;;;;;;;;10276338;28;20484;-58
2024/03/23 01:19:23;;;;;;;7.43;6.25;;;;;;;;;;10279502;28;20508;-58
2024/03/23 01:24:20;;;;;;;8.02;5.88;;;;;;;;;;10277580;28;20083;-59
2024/03/23 01:29:18;;;;;;;11.82;7.55;;;;;;;;;;10276548;28;20067;-57
2024/03/23 01:34:16;;;;;;;7.03;6.32;;;;;;;;;;10275057;28;20076;-58
2024/03/23 01:39:14;;;;;;;6.88;6.20;;;;;;;;;;10276410;28;20072;-58
2024/03/23 01:44:11;;;;;;;7.97;6.45;;;;;;;;;;10278768;28;20060;-58
2024/03/23 01:49:09;;;;;;;7.15;5.88;;;;;;;;;;10277589;28;20071;-58
2024/03/23 01:54:08;;;;;;;6.97;6.28;;;;;;;;;;10275336;28;20071;-59
2024/03/23 01:59:06;;;;;;;6.45;5.82;;;;;;;;;;10291329;28;20494;-57
2024/03/23 02:04:03;;;;;;;6.47;5.72;;;;;;;;;;10281053;28;20064;-58
2024/03/23 02:09:01;;;;;;;8.63;6.55;;;;;;;;;;10281655;28;20072;-59
2024/03/23 02:14:00;;;;;;;5.95;5.45;;;;;;;;;;10281224;28;20147;-58
2024/03/23 02:18:57;;;;;;;6.82;6.03;;;;;;;;;;10280671;28;20060;-58
2024/03/23 02:23:56;;;;;;;8.32;6.40;;;;;;;;;;10281283;28;20052;-59
2024/03/23 02:28:53;;;;;;;6.95;6.25;;;;;;;;;;10275129;28;20079;-58
2024/03/23 02:33:51;;;;;;;7.75;6.82;;;;;;;;;;10275767;28;20071;-58
2024/03/23 02:38:49;;;;;;;6.80;6.20;;;;;;;;;;10280385;28;20045;-56
2024/03/23 02:43:49;;;;;;;6.78;6.07;;;;;;;;;;10283964;28;20523;-57
2024/03/23 02:48:49;;;;;;;6.40;5.72;;;;;;;;;;10286224;28;20091;-58
2024/03/23 02:53:46;;;;;;;6.88;6.18;;;;;;;;;;10281816;28;20445;-58
2024/03/23 02:58:44;;;;;;;7.38;6.40;;;;;;;;;;10283965;28;20068;-59
2024/03/23 03:03:43;;;;;;;7.78;6.25;;;;;;;;;;10282294;28;20076;-59
2024/03/23 03:08:41;;;;;;;6.97;6.38;;;;;;;;;;10283577;28;20084;-56
2024/03/23 03:13:38;;;;;;;7.35;6.65;;;;;;;;;;10282038;28;20562;-58
2024/03/23 03:18:36;;;;;;;8.15;6.15;;;;;;;;;;10280589;28;20836;-57
2024/03/23 03:23:35;;;;;;;6.55;5.95;;;;;;;;;;10280657;28;20084;-55
2024/03/23 03:28:32;;;;;;;7.40;6.22;;;;;;;;;;10287374;28;20079;-58
2024/03/23 03:33:30;;;;;;;7.00;6.30;;;;;;;;;;10281142;28;20067;-59
2024/03/23 03:38:27;;;;;;;7.70;5.85;;;;;;;;;;10280745;28;20149;-59
2024/03/23 03:43:26;;;;;;;8.27;6.05;;;;;;;;;;10278708;28;20475;-57
2024/03/23 03:48:23;;;;;;;6.55;5.95;;;;;;;;;;10279567;28;20080;-58
2024/03/23 03:53:21;;;;;;;6.93;6.22;;;;;;;;;;10283394;28;20083;-57
2024/03/23 03:58:18;;;;;;;7.53;6.80;;;;;;;;;;10285243;28;20631;-58
2024/03/23 04:03:17;;;;;;;7.88;5.70;;;;;;;;;;10282477;28;20460;-57
2024/03/23 04:08:14;;;;;;;7.50;6.68;;;;;;;;;;10280419;28;20446;-58
2024/03/23 04:13:12;;;;;;;6.78;6.03;;;;;;;;;;10281151;28;20083;-58
2024/03/23 04:18:09;;;;;;;7.18;6.38;;;;;;;;;;10277826;28;20530;-57
2024/03/23 04:23:08;;;;;;;7.20;6.50;;;;;;;;;;10280119;28;20077;-57
2024/03/23 04:28:06;;;;;;;6.80;6.10;;;;;;;;;;10278754;28;20068;-58
2024/03/23 04:33:05;;;;;;;7.10;6.40;;;;;;;;;;10286195;28;20082;-57
2024/03/23 04:38:02;;;;;;;7.72;6.75;;;;;;;;;;10283159;28;20513;-58
2024/03/23 04:43:01;;;;;;;7.57;6.53;;;;;;;;;;10283477;28;20314;-59
2024/03/23 04:47:58;;;;;;;7.85;6.85;;;;;;;;;;10280322;28;20183;-57
2024/03/23 04:52:56;;;;;;;7.63;6.82;;;;;;;;;;10276871;28;20076;-58
2024/03/23 04:57:53;;;;;;;7.07;6.10;;;;;;;;;;10283110;28;20466;-58
2024/03/23 05:02:53;;;;;;;7.65;5.88;;;;;;;;;;10281027;28;20060;-59
2024/03/23 05:07:50;;;;;;;7.30;6.22;;;;;;;;;;10273886;28;20494;-58
2024/03/23 05:12:48;;;;;;;6.57;5.93;;;;;;;;;;10270510;28;20499;-59
2024/03/23 05:17:45;;;;;;;8.07;7.15;;;;;;;;;;10266578;28;20068;-59
2024/03/23 05:22:44;;;;;;;6.68;5.93;;;;;;;;;;10270539;28;20088;-59
2024/03/23 05:27:41;;;;;;;6.97;6.28;;;;;;;;;;10283534;28;20060;-58
2024/03/23 05:32:40;;;;;;;8.10;7.05;;;;;;;;;;10279694;28;20072;-59
2024/03/23 05:37:37;;;;;;;6.88;6.18;;;;;;;;;;10282637;28;20121;-58
2024/03/23 05:42:36;;;;;;;8.48;5.82;;;;;;;;;;10254700;28;20593;-59
2024/03/23 05:47:34;;;;;;;6.80;6.10;;;;;;;;;;10277310;28;20458;-58
2024/03/23 05:52:31;;;;;;;7.10;6.32;;;;;;;;;;10286256;28;20096;-58
2024/03/23 05:57:29;;;;;;;7.68;6.00;;;;;;;;;;10284704;28;20076;-58
2024/03/23 06:02:27;;;;;;;6.43;5.65;;;;;;;;;;10265118;28;20474;-59
2024/03/23 06:07:25;;;;;;;7.40;5.85;;;;;;;;;;10275151;28;20072;-57
2024/03/23 06:12:22;;;;;;;7.20;6.47;;;;;;;;;;10275734;28;20104;-58
2024/03/23 06:17:20;;;;;;;6.35;5.75;;;;;;;;;;10246238;28;20073;-54
2024/03/23 06:22:19;;;;;;;7.25;6.25;;;;;;;;;;10255167;28;20086;-59
2024/03/23 06:27:16;;;;;;;6.57;5.97;;;;;;;;;;10260921;28;20122;-58
2024/03/23 06:32:13;;;;;;;7.55;6.00;;;;;;;;;;10257267;28;20072;-59
2024/03/23 06:37:11;;;;;;;5.75;5.25;;;;;;;;;;10260233;28;20060;-58
2024/03/23 06:42:10;;;;;;;7.50;6.03;;;;;;;;;;10262056;28;20470;-59
2024/03/23 06:47:07;;;;;;;6.38;5.55;;;;;;;;;;10267907;28;20076;-56
2024/03/23 06:52:05;;;;;;;7.05;6.43;;;;;;;;;;10252152;28;20088;-59
2024/03/23 06:57:02;;;;;;;7.53;5.95;;;;;;;;;;10255086;28;20081;-57
2024/03/23 07:02:01;;;;;;;6.70;6.00;;;;;;;;;;10271903;28;20061;-58
2024/03/23 07:06:59;;;;;;;7.53;6.13;;;;;;;;;;10250868;28;20099;-58
2024/03/23 07:11:57;;;;;;;7.25;5.93;;;;;;;;;;10275934;28;20080;-57
2024/03/23 07:16:57;;;;;;;5.57;4.90;;;;;;;;;;10295194;28;20068;-56
2024/03/23 07:21:56;;;;;;;7.75;6.90;;;;;;;;;;10275035;28;20522;-56
2024/03/23 07:26:54;;;;;;;8.02;7.22;;;;;;;;;;10288179;28;20064;-58
2024/03/23 07:31:51;;;;;;;9.60;7.70;;;;;;;;;;10293705;28;20080;-58
2024/03/23 07:36:49;;;;;;;8.82;7.95;;;;;;;;;;10292304;28;20063;-57
2024/03/23 07:41:47;;;;;;;9.43;7.93;;;;;;;;;;10276649;28;20533;-58
2024/03/23 07:46:45;;;;;;;7.70;6.85;;;;;;;;;;10284124;28;20076;-59
2024/03/23 07:51:42;;;;;;;7.43;6.40;;;;;;;;;;10276398;28;20068;-57
2024/03/23 07:56:40;;;;;;;6.03;5.43;;;;;;;;;;10281631;28;20545;-58
2024/03/23 08:01:39;;;;;;;9.18;6.70;;;;;;;;;;10287007;28;20510;-56
2024/03/23 08:06:36;;;;;;;7.45;6.03;;;;;;;;;;10283580;28;20067;-58
2024/03/23 08:11:34;;;;;;;13.70;8.02;;;;;;;;;;10284857;28;20087;-56
2024/03/23 08:16:31;;;;;;;6.72;6.00;;;;;;;;;;10286050;28;20071;-56
2024/03/23 08:21:30;;;;;;;8.48;5.63;;;;;;;;;;10292558;28;20331;-57
2024/03/23 08:26:28;;;;;;;5.80;5.13;;;;;;;;;;10277161;28;20080;-56
2024/03/23 08:31:25;;;;;;;5.03;4.63;;;;;;;;;;10273935;28;20080;-58
2024/03/23 08:36:23;;;;;;;6.10;5.00;;;;;;;;;;10279271;28;20077;-54
2024/03/23 08:41:22;;;;;;;4.53;4.13;;;;;;;;;;10292945;28;20060;-58
2024/03/23 08:46:20;;;;;;;4.65;4.20;;;;;;;;;;10280951;28;20073;-56
2024/03/23 08:51:18;;;;;;;5.05;4.55;;;;;;;;;;10279044;28;20084;-55
2024/03/23 08:56:17;;;;;;;5.22;4.72;;;;;;;;;;10269625;28;20087;-55
2024/03/23 09:01:16;;;;;;;6.30;4.43;;;;;;;;;;10281387;28;20060;-59
2024/03/23 09:06:14;;;;;;;4.60;4.05;;;;;;;;;;10279494;28;20464;-56
2024/03/23 09:11:12;;;;;;;4.57;4.18;;;;;;;;;;10283845;28;20537;-58
2024/03/23 09:16:09;;;;;;;6.32;4.38;;;;;;;;;;10265829;28;20068;-58
2024/03/23 09:21:14;;;;;;;20.45;14.23;;;;;;;;;;10264087;28;20064;-58
2024/03/23 09:26:11;;;;;;;9.32;7.00;;;;;;;;;;10276349;28;20470;-58
2024/03/23 09:31:14;;;;;;;6.70;5.38;;;;;;;;;;10290199;28;20056;-58
2024/03/23 09:36:13;;;;;;;5.18;3.40;;;;;;;;;;10275646;28;20075;-58
2024/03/23 09:41:10;;;;;;;4.72;3.72;;;;;;;;;;10269381;28;20095;-59
2024/03/23 09:46:09;;;;;;;4.13;3.67;;;;;;;;;;10279288;28;20072;-59
2024/03/23 09:51:08;;;;;;;4.15;3.75;;;;;;;;;;10267864;28;20057;-60
2024/03/23 09:56:08;;;;;;;4.72;4.13;;;;;;;;;;10286921;28;20088;-58
2024/03/23 10:01:06;;;;;;;3.90;3.60;;;;;;;;;;10279814;28;20071;-56
2024/03/23 10:06:04;;;;;;;4.03;3.63;;;;;;;;;;10274320;28;20052;-58
2024/03/23 10:11:13;;;;;;;4.28;3.40;;;;;;;;;;10292653;28;20309;-56
2024/03/23 10:16:11;;;;;;;3.88;3.45;;;;;;;;;;10285253;28;20076;-57
2024/03/23 10:21:10;;;;;;;3.92;3.50;;;;;;;;;;10280060;28;20072;-58
2024/03/23 10:26:20;;;;;;;4.15;3.55;;;;;;;;;;10273264;28;20509;-58
2024/03/23 10:31:18;;;;;;;3.97;3.45;;;;;;;;;;10288402;28;20072;-58
2024/03/23 10:36:15;;;;;;;5.00;4.50;;;;;;;;;;10281408;28;20072;-61
2024/03/23 10:41:13;;;;;;;4.30;3.85;;;;;;;;;;10287480;28;20532;-57
2024/03/23 10:46:12;;;;;;;8.43;6.13;;;;;;;;;;10292577;28;20686;-58
2024/03/23 10:51:09;;;;;;;5.78;4.68;;;;;;;;;;10279366;28;20061;-58
2024/03/23 10:56:08;;;;;;;5.10;3.33;;;;;;;;;;10281956;28;20079;-58
2024/03/23 11:01:05;;;;;;;4.60;4.20;;;;;;;;;;10288432;28;20072;-58
2024/03/23 11:06:05;;;;;;;4.15;3.50;;;;;;;;;;10291729;28;20073;-59
2024/03/23 11:11:12;;;;;;;6.25;3.45;;;;;;;;;;10286427;28;20080;-58
2024/03/23 11:16:17;;;;;;;4.97;3.67;;;;;;;;;;10287527;28;20525;-58
2024/03/23 11:21:41;;;;;;;3.53;3.22;;;;;;;;;;10274444;28;20075;-59
2024/03/23 11:26:39;;;;;;;3.83;3.40;;;;;;;;;;10256801;28;20524;-58
2024/03/23 11:31:37;;;;;;;4.72;4.28;;;;;;;;;;10263079;28;20565;-57
2024/03/23 11:36:36;;;;;;;4.28;3.20;;;;;;;;;;10254294;28;20103;-58
2024/03/23 11:41:33;;;;;;;3.72;3.38;;;;;;;;;;10256783;28;20503;-58
2024/03/23 11:46:31;;;;;;;4.80;4.32;;;;;;;;;;10278672;28;20479;-58
2024/03/23 11:51:34;;;;;;;6.00;3.90;;;;;;;;;;10267778;28;20064;-58
2024/03/23 11:56:33;;;;;;;4.60;3.20;;;;;;;;;;10270504;28;20182;-58
2024/03/23 12:01:30;;;;;;;5.72;3.55;;;;;;;;;;10262353;28;20071;-58
2024/03/23 12:06:28;;;;;;;17.30;13.30;;;;;;;;;;10269339;28;20086;-57
2024/03/23 12:11:26;;;;;;;14.48;11.25;;;;;;;;;;10270995;28;20088;-58
2024/03/23 12:16:27;;;;;;;7.97;5.68;;;;;;;;;;10276852;28;20072;-59
2024/03/23 12:21:24;;;;;;;5.43;3.42;;;;;;;;;;10273146;28;20076;-58
2024/03/23 12:26:23;;;;;;;10.45;5.85;;;;;;;;;;10261099;28;20110;-57
2024/03/23 12:31:20;;;;;;;7.25;4.50;;;;;;;;;;10286256;28;20076;-58
2024/03/23 12:36:19;;;;;;;6.18;4.15;;;;;;;;;;10272518;28;20075;-58
2024/03/23 12:41:17;;;;;;;4.07;3.65;;;;;;;;;;10288597;28;20098;-58
2024/03/23 12:46:15;;;;;;;4.20;3.60;;;;;;;;;;10299616;28;20083;-58
2024/03/23 12:51:12;;;;;;;5.93;4.03;;;;;;;;;;10291808;28;20068;-58
2024/03/23 12:56:14;;;;;;;10.52;4.40;;;;;;;;;;10287862;28;20076;-58
2024/03/23 13:01:11;;;;;;;4.82;3.85;;;;;;;;;;10264809;28;20068;-60
2024/03/23 13:06:09;;;;;;;6.47;5.30;;;;;;;;;;10274866;28;20477;-59
2024/03/23 13:11:08;;;;;;;4.57;3.97;;;;;;;;;;10292195;28;20072;-59
2024/03/23 13:16:07;;;;;;;4.53;3.92;;;;;;;;;;10305540;28;20082;-59
2024/03/23 13:21:05;;;;;;;4.15;3.45;;;;;;;;;;10293754;28;20060;-58
2024/03/23 13:26:02;;;;;;;4.43;3.90;;;;;;;;;;10295520;28;20077;-58
2024/03/23 13:31:03;;;;;;;4.82;3.65;;;;;;;;;;10289750;28;20064;-59
2024/03/23 13:36:03;;;;;;;4.55;3.30;;;;;;;;;;10291862;28;20068;-59
2024/03/23 13:41:01;;;;;;;6.80;3.70;;;;;;;;;;10305088;28;20078;-59
2024/03/23 13:46:00;;;;;;;3.58;3.28;;;;;;;;;;10300297;28;20063;-59
2024/03/23 13:51:02;;;;;;;3.90;3.60;;;;;;;;;;10276802;28;20073;-58
2024/03/23 13:56:00;;;;;;;5.10;3.85;;;;;;;;;;10274229;28;20072;-56
2024/03/23 14:00:58;;;;;;;6.65;4.38;;;;;;;;;;10270684;28;20501;-58
2024/03/23 14:05:58;;;;;;;4.40;3.75;;;;;;;;;;10276751;28;20080;-59
2024/03/23 14:10:58;;;;;;;6.80;3.65;;;;;;;;;;10266901;28;20084;-58
2024/03/23 14:15:55;;;;;;;4.97;3.33;;;;;;;;;;10265150;28;20085;-58
2024/03/23 14:20:54;;;;;;;6.32;3.83;;;;;;;;;;10267127;28;20064;-59
2024/03/23 14:25:53;;;;;;;3.97;3.30;;;;;;;;;;10282047;28;20076;-58
2024/03/23 14:30:52;;;;;;;4.30;3.90;;;;;;;;;;10270452;28;20072;-58
2024/03/23 14:35:53;;;;;;;4.70;3.20;;;;;;;;;;10278607;28;20084;-57
2024/03/23 14:40:51;;;;;;;6.38;3.55;;;;;;;;;;10277103;28;20072;-58
2024/03/23 14:46:07;;;;;;;5.68;3.17;;;;;;;;;;10284203;28;20087;-57
2024/03/23 14:51:05;;;;;;;6.15;5.55;;;;;;;;;;10292365;28;20060;-58
2024/03/23 14:56:03;;;;;;;4.25;3.83;;;;;;;;;;10289661;28;20541;-57
2024/03/23 15:01:03;;;;;;;13.82;5.72;;;;;;;;;;10286883;28;20543;-58
2024/03/23 15:06:01;;;;;;;3.60;3.10;;;;;;;;;;10292186;28;20691;-59
2024/03/23 15:11:00;;;;;;;4.20;3.58;;;;;;;;;;10281110;28;20073;-57
2024/03/23 15:15:57;;;;;;;8.27;7.03;;;;;;;;;;10249725;28;20513;-56
2024/03/23 15:20:57;;;;;;;7.70;4.93;;;;;;;;;;10247533;28;20454;-58
2024/03/23 15:25:57;;;;;;;4.15;3.53;;;;;;;;;;10243783;28;20075;-58
2024/03/23 15:30:54;;;;;;;4.00;3.22;;;;;;;;;;10239113;28;20482;-57
2024/03/23 15:35:52;;;;;;;5.80;4.40;;;;;;;;;;10231471;28;20513;-56
2024/03/23 15:40:53;;;;;;;4.20;3.80;;;;;;;;;;10254750;28;20064;-58
2024/03/23 15:45:57;;;;;;;4.85;4.18;;;;;;;;;;10247880;28;20076;-55
2024/03/23 15:50:56;;;;;;;5.35;4.85;;;;;;;;;;10251376;28;20069;-58
2024/03/23 15:55:56;;;;;;;12.88;8.32;;;;;;;;;;10231497;28;20080;-57
2024/03/23 16:00:56;;;;;;;8.18;6.70;;;;;;;;;;10266390;28;20424;-58
2024/03/23 16:05:54;;;;;;;17.65;14.18;;;;;;;;;;10248969;28;20081;-59
2024/03/23 16:10:52;;;;;;;18.05;14.00;;;;;;;;;;10233167;28;20119;-58
2024/03/23 16:15:57;;;;;;;8.55;5.72;;;;;;;;;;10250748;28;20080;-58
2024/03/23 16:20:55;;;;;;;12.40;11.20;;;;;;;;;;10252280;28;20091;-58
2024/03/23 16:25:56;;;;;;;21.63;19.52;;;;;;;;;;10273297;28;20072;-58
2024/03/23 16:30:56;;;;;;;14.93;13.43;;;;;;;;;;10284537;28;20498;-59
2024/03/23 16:35:57;;;;;;;7.65;5.68;;;;;;;;;;10279724;28;20362;-58
2024/03/23 16:40:59;;;;;;;15.18;9.70;;;;;;;;;;10281955;28;20080;-59
2024/03/23 16:45:58;;;;;;;18.20;15.27;;;;;;;;;;10273082;28;20081;-57
2024/03/23 16:50:59;;;;;;;31.30;27.55;;;;;;;;;;10263027;28;20495;-58
2024/03/23 16:55:57;;;;;;;46.58;37.53;;;;;;;;;;10260216;28;20393;-58
2024/03/23 17:00:56;;;;;;;35.50;30.70;;;;;;;;;;10263823;28;20063;-58
2024/03/23 17:05:55;;;;;;;48.70;43.60;;;;;;;;;;10273712;28;20079;-59
2024/03/23 17:10:58;;;;;;;99.20;84.82;;;;;;;;;;10272059;28;20794;-59
2024/03/23 17:15:56;;;;;;;191.50;146.73;;;;;;;;;;10266970;28;20076;-60
2024/03/23 17:20:55;;;;;;;59.70;50.47;;;;;;;;;;10262269;28;20069;-57
2024/03/23 17:25:52;;;;;;;75.38;57.67;;;;;;;;;;10278789;28;20776;-58
2024/03/23 17:30:50;;;;;;;53.30;42.38;;;;;;;;;;10260492;28;20062;-59
2024/03/23 17:35:47;;;;;;;30.33;23.40;;;;;;;;;;10269952;28;20525;-57
2024/03/23 17:40:47;;;;;;;36.58;27.45;;;;;;;;;;10268973;28;20075;-58
2024/03/23 17:45:45;;;;;;;31.60;28.25;;;;;;;;;;10282259;28;20067;-58
2024/03/23 17:50:42;;;;;;;18.98;16.48;;;;;;;;;;10289001;28;20072;-59
2024/03/23 17:55:39;;;;;;;13.85;11.65;;;;;;;;;;10291812;28;20072;-56
2024/03/23 18:00:39;;;;;;;8.27;7.47;;;;;;;;;;10298277;28;20068;-58
2024/03/23 18:05:36;;;;;;;8.40;7.10;;;;;;;;;;10285787;28;20061;-58
2024/03/23 18:10:34;;;;;;;17.92;9.07;;;;;;;;;;10286300;28;20084;-59
2024/03/23 18:15:31;;;;;;;14.68;8.77;;;;;;;;;;10261895;28;20076;-59
2024/03/23 18:20:30;;;;;;;11.07;7.35;;;;;;;;;;10255424;28;20533;-64
2024/03/23 18:25:27;;;;;;;8.15;7.10;;;;;;;;;;10268195;28;20486;-58
2024/03/23 18:30:25;;;;;;;9.85;6.32;;;;;;;;;;10256399;28;20123;-58
2024/03/23 18:35:22;;;;;;;10.68;8.85;;;;;;;;;;10250545;28;20071;-58
2024/03/23 18:40:22;;;;;;;11.95;8.63;;;;;;;;;;10274042;28;20072;-58
2024/03/23 18:45:20;;;;;;;8.13;6.20;;;;;;;;;;10261199;28;20521;-58
2024/03/23 18:50:18;;;;;;;7.47;5.13;;;;;;;;;;10240728;28;20569;-57
2024/03/23 18:55:15;;;;;;;8.20;5.10;;;;;;;;;;10232204;28;20068;-59
2024/03/23 19:00:15;;;;;;;6.05;3.60;;;;;;;;;;10242943;28;20064;-59
2024/03/23 19:05:12;;;;;;;6.90;5.13;;;;;;;;;;10252030;28;20088;-58
2024/03/23 19:10:10;;;;;;;7.32;5.13;;;;;;;;;;10246388;28;20447;-59
2024/03/23 19:15:08;;;;;;;7.35;5.35;;;;;;;;;;10295526;28;20469;-59
2024/03/23 19:20:09;;;;;;;5.57;4.35;;;;;;;;;;10257552;28;20533;-58
2024/03/23 19:25:09;;;;;;;6.53;5.10;;;;;;;;;;10256782;28;20080;-58
2024/03/23 19:30:07;;;;;;;5.88;4.50;;;;;;;;;;10255881;28;20076;-61
2024/03/23 19:35:05;;;;;;;5.93;4.65;;;;;;;;;;10263887;28;20068;-59
2024/03/23 19:40:04;;;;;;;6.30;4.95;;;;;;;;;;10285111;28;20059;-58
2024/03/23 19:45:02;;;;;;;6.72;4.10;;;;;;;;;;10268916;28;20061;-59
2024/03/23 19:49:59;;;;;;;7.68;5.22;;;;;;;;;;10267941;28;20472;-58
2024/03/23 19:54:57;;;;;;;5.78;4.95;;;;;;;;;;10255827;28;20069;-59
2024/03/23 19:59:57;;;;;;;7.30;4.07;;;;;;;;;;10262356;28;20072;-53
2024/03/23 20:04:56;;;;;;;7.32;3.63;;;;;;;;;;10307843;28;20523;-59
2024/03/23 20:09:54;;;;;;;4.43;3.63;;;;;;;;;;10277931;28;20462;-58
2024/03/23 20:14:51;;;;;;;9.80;4.15;;;;;;;;;;10275802;28;20095;-57
2024/03/23 20:19:50;;;;;;;3.75;3.42;;;;;;;;;;10273223;28;20084;-57
2024/03/23 20:24:50;;;;;;;5.38;3.90;;;;;;;;;;10286400;28;20583;-59
2024/03/23 20:29:48;;;;;;;4.90;3.58;;;;;;;;;;10273561;28;20101;-57
2024/03/23 20:34:45;;;;;;;4.60;3.88;;;;;;;;;;10288487;28;20064;-57
2024/03/23 20:39:44;;;;;;;4.93;3.70;;;;;;;;;;10275123;28;20147;-58
2024/03/23 20:44:41;;;;;;;5.95;4.60;;;;;;;;;;10326832;28;20536;-60
2024/03/23 20:49:39;;;;;;;7.35;3.25;;;;;;;;;;10278061;28;20204;-59
2024/03/23 20:54:36;;;;;;;2.92;2.72;;;;;;;;;;10302258;28;20063;-58
2024/03/23 20:59:35;;;;;;;3.35;3.05;;;;;;;;;;10276136;28;20079;-59
2024/03/23 21:04:33;;;;;;;3.33;3.03;;;;;;;;;;10317126;28;20064;-60
2024/03/23 21:09:33;;;;;;;3.72;2.83;;;;;;;;;;10272560;28;20060;-59
2024/03/23 21:14:30;;;;;;;4.95;3.92;;;;;;;;;;10284462;28;20064;-58
2024/03/23 21:19:29;;;;;;;3.40;3.10;;;;;;;;;;10271051;28;20068;-60
2024/03/23 21:24:27;;;;;;;4.78;3.22;;;;;;;;;;10264722;28;20072;-59
2024/03/23 21:29:27;;;;;;;5.35;3.83;;;;;;;;;;10268184;28;20536;-59
2024/03/23 21:34:24;;;;;;;4.47;3.30;;;;;;;;;;10273259;28;20517;-60
2024/03/23 21:39:25;;;;;;;5.13;4.07;;;;;;;;;;10277050;28;20103;-59
2024/03/23 21:44:23;;;;;;;4.50;3.80;;;;;;;;;;10272456;28;20500;-59
2024/03/23 21:49:20;;;;;;;7.13;4.18;;;;;;;;;;10268208;28;20071;-59
2024/03/23 21:54:18;;;;;;;3.40;3.10;;;;;;;;;;10291550;28;20466;-58
2024/03/23 21:59:17;;;;;;;3.28;2.97;;;;;;;;;;10278834;28;20099;-58
2024/03/23 22:04:14;;;;;;;3.58;3.05;;;;;;;;;;10288252;28;20072;-59
2024/03/23 22:09:12;;;;;;;5.40;3.30;;;;;;;;;;10293014;28;20057;-59
2024/03/23 22:14:09;;;;;;;3.97;3.30;;;;;;;;;;10291634;28;20072;-59
2024/03/23 22:19:08;;;;;;;3.85;3.22;;;;;;;;;;10286845;28;20065;-59
2024/03/23 22:24:06;;;;;;;3.10;2.88;;;;;;;;;;10274538;28;20506;-59
2024/03/23 22:29:03;;;;;;;4.80;3.20;;;;;;;;;;10248217;28;20075;-59
2024/03/23 22:34:01;;;;;;;4.45;3.47;;;;;;;;;;10260592;28;20092;-60
2024/03/23 22:39:00;;;;;;;14.70;3.75;;;;;;;;;;10230267;28;20077;-59
2024/03/23 22:43:57;;;;;;;4.68;3.28;;;;;;;;;;10268299;28;20068;-59
2024/03/23 22:48:54;;;;;;;4.63;3.10;;;;;;;;;;10253527;28;20088;-59
2024/03/23 22:53:52;;;;;;;3.75;3.38;;;;;;;;;;10250314;28;20069;-58
2024/03/23 22:58:51;;;;;;;4.28;3.63;;;;;;;;;;10243932;28;20095;-59
2024/03/23 23:03:48;;;;;;;5.18;3.78;;;;;;;;;;10300241;28;20103;-60
2024/03/23 23:08:46;;;;;;;4.18;2.97;;;;;;;;;;10265415;28;20057;-58
2024/03/23 23:13:43;;;;;;;5.30;3.38;;;;;;;;;;10282394;28;20478;-59
2024/03/23 23:18:45;;;;;;;6.63;2.80;;;;;;;;;;10274516;28;20528;-60
2024/03/23 23:23:42;;;;;;;3.25;2.80;;;;;;;;;;10260871;28;20065;-59
2024/03/23 23:28:40;;;;;;;3.58;2.60;;;;;;;;;;10272361;28;20080;-61
2024/03/23 23:33:37;;;;;;;3.42;3.10;;;;;;;;;;10281214;28;20056;-59
2024/03/23 23:38:36;;;;;;;6.05;3.33;;;;;;;;;;10274200;28;20072;-59
2024/03/23 23:43:33;;;;;;;3.40;3.10;;;;;;;;;;10290175;28;20094;-59
2024/03/23 23:48:31;;;;;;;3.85;3.42;;;;;;;;;;10291655;28;20071;-59
2024/03/23 23:53:28;;;;;;;3.95;2.97;;;;;;;;;;10297051;28;20106;-58
2024/03/23 23:58:27;;;;;;;4.38;2.70;;;;;;;;;;10276651;28;20064;-57
